sensor_id;sensor_type;location;lat;lon;timestamp;pressure;altitude;pressure_sealevel;temperature;humidity
75460;BME280;64039;53.060;9.342;2023-07-30T00:02:01;100370.47;;;15.56;100.00
75460;BME280;64039;53.060;9.342;2023-07-30T00:04:26;100372.25;;;15.53;100.00
75460;BME280;64039;53.060;9.342;2023-07-30T00:06:51;100367.88;;;15.55;100.00
75460;BME280;64039;53.060;9.342;2023-07-30T00:09:17;100373.09;;;15.53;100.00
75460;BME280;64039;53.060;9.342;2023-07-30T00:11:42;100369.56;;;15.59;100.00
75460;BME280;64039;53.060;9.342;2023-07-30T00:14:08;100378.34;;;15.56;100.00
75460;BME280;64039;53.060;9.342;2023-07-30T00:16:33;100377.50;;;15.53;100.00
75460;BME280;64039;53.060;9.342;2023-07-30T00:18:59;100373.13;;;15.49;100.00
75460;BME280;64039;53.060;9.342;2023-07-30T00:21:24;100368.78;;;15.45;100.00
75460;BME280;64039;53.060;9.342;2023-07-30T00:23:50;100364.41;;;15.51;100.00
75460;BME280;64039;53.060;9.342;2023-07-30T00:26:15;100363.50;;;15.51;100.00
75460;BME280;64039;53.060;9.342;2023-07-30T00:28:41;100373.13;;;15.52;100.00
75460;BME280;64039;53.060;9.342;2023-07-30T00:31:06;100373.13;;;15.52;100.00
75460;BME280;64039;53.060;9.342;2023-07-30T00:33:32;100377.47;;;15.54;100.00
75460;BME280;64039;53.060;9.342;2023-07-30T00:35:57;100372.25;;;15.51;100.00
75460;BME280;64039;53.060;9.342;2023-07-30T00:38:22;100372.22;;;15.54;100.00
75460;BME280;64039;53.060;9.342;2023-07-30T00:40:48;100377.47;;;15.54;100.00
75460;BME280;64039;53.060;9.342;2023-07-30T00:43:14;100369.63;;;15.53;100.00
75460;BME280;64039;53.060;9.342;2023-07-30T00:45:41;100373.97;;;15.55;100.00
75460;BME280;64039;53.060;9.342;2023-07-30T00:48:08;100379.22;;;15.57;100.00
75460;BME280;64039;53.060;9.342;2023-07-30T00:50:34;100374.81;;;15.62;100.00
75460;BME280;64039;53.060;9.342;2023-07-30T00:53:00;100377.41;;;15.64;100.00
75460;BME280;64039;53.060;9.342;2023-07-30T00:55:25;100386.13;;;15.69;100.00
75460;BME280;64039;53.060;9.342;2023-07-30T00:57:51;100380.03;;;15.65;100.00
75460;BME280;64039;53.060;9.342;2023-07-30T01:00:17;100370.41;;;15.66;100.00
75460;BME280;64039;53.060;9.342;2023-07-30T01:02:43;100374.78;;;15.67;100.00
75460;BME280;64039;53.060;9.342;2023-07-30T01:05:09;100374.81;;;15.62;100.00
75460;BME280;64039;53.060;9.342;2023-07-30T01:07:34;100374.72;;;15.76;100.00
75460;BME280;64039;53.060;9.342;2023-07-30T01:10:00;100375.59;;;15.75;100.00
75460;BME280;64039;53.060;9.342;2023-07-30T01:12:27;100379.97;;;15.76;100.00
75460;BME280;64039;53.060;9.342;2023-07-30T01:14:55;100379.97;;;15.73;100.00
75460;BME280;64039;53.060;9.342;2023-07-30T01:17:21;100378.19;;;15.77;100.00
75460;BME280;64039;53.060;9.342;2023-07-30T01:19:47;100383.41;;;15.78;100.00
75460;BME280;64039;53.060;9.342;2023-07-30T01:22:15;100393.00;;;15.88;100.00
75460;BME280;64039;53.060;9.342;2023-07-30T01:24:40;100383.41;;;15.78;100.00
75460;BME280;64039;53.060;9.342;2023-07-30T01:27:07;100395.69;;;15.81;100.00
75460;BME280;64039;53.060;9.342;2023-07-30T01:29:45;100384.38;;;15.72;100.00
75460;BME280;64039;53.060;9.342;2023-07-30T01:32:13;100397.44;;;15.77;100.00
75460;BME280;64039;53.060;9.342;2023-07-30T01:34:41;100395.66;;;15.79;100.00
75460;BME280;64039;53.060;9.342;2023-07-30T01:37:09;100393.06;;;15.81;100.00
75460;BME280;64039;53.060;9.342;2023-07-30T01:39:36;100400.06;;;15.77;100.00
75460;BME280;64039;53.060;9.342;2023-07-30T01:42:04;100394.81;;;15.82;100.00
75460;BME280;64039;53.060;9.342;2023-07-30T01:44:29;100400.06;;;15.79;100.00
75460;BME280;64039;53.060;9.342;2023-07-30T01:46:55;100392.19;;;15.77;100.00
75460;BME280;64039;53.060;9.342;2023-07-30T01:49:20;100400.03;;;15.80;100.00
75460;BME280;64039;53.060;9.342;2023-07-30T01:51:46;100401.75;;;15.83;100.00
75460;BME280;64039;53.060;9.342;2023-07-30T01:54:11;100400.06;;;15.76;100.00
75460;BME280;64039;53.060;9.342;2023-07-30T01:56:37;100400.94;;;15.75;100.00
75460;BME280;64039;53.060;9.342;2023-07-30T01:59:02;100404.47;;;15.75;100.00
75460;BME280;64039;53.060;9.342;2023-07-30T02:01:28;100418.47;;;15.69;100.00
75460;BME280;64039;53.060;9.342;2023-07-30T02:03:53;100416.75;;;15.67;100.00
75460;BME280;64039;53.060;9.342;2023-07-30T02:06:18;100414.13;;;15.67;100.00
75460;BME280;64039;53.060;9.342;2023-07-30T02:08:44;100417.59;;;15.70;100.00
75460;BME280;64039;53.060;9.342;2023-07-30T02:11:09;100421.09;;;15.69;100.00
75460;BME280;64039;53.060;9.342;2023-07-30T02:13:35;100423.72;;;15.66;100.00
75460;BME280;64039;53.060;9.342;2023-07-30T02:16:00;100418.53;;;15.63;100.00
75460;BME280;64039;53.060;9.342;2023-07-30T02:18:26;100425.50;;;15.66;100.00
75460;BME280;64039;53.060;9.342;2023-07-30T02:20:51;100416.81;;;15.57;100.00
75460;BME280;64039;53.060;9.342;2023-07-30T02:23:17;100417.69;;;15.60;100.00
75460;BME280;64039;53.060;9.342;2023-07-30T02:25:42;100420.31;;;15.56;100.00
75460;BME280;64039;53.060;9.342;2023-07-30T02:28:09;100416.81;;;15.54;100.00
75460;BME280;64039;53.060;9.342;2023-07-30T02:30:35;100419.47;;;15.51;100.00
75460;BME280;64039;53.060;9.342;2023-07-30T02:33:01;100414.28;;;15.37;100.00
75460;BME280;64039;53.060;9.342;2023-07-30T02:35:26;100413.47;;;15.28;100.00
75460;BME280;64039;53.060;9.342;2023-07-30T02:37:52;100420.44;;;15.29;100.00
75460;BME280;64039;53.060;9.342;2023-07-30T02:40:17;100410.84;;;15.26;100.00
75460;BME280;64039;53.060;9.342;2023-07-30T02:42:43;100417.00;;;15.19;100.00
75460;BME280;64039;53.060;9.342;2023-07-30T02:45:09;100413.53;;;15.18;100.00
75460;BME280;64039;53.060;9.342;2023-07-30T02:47:35;100416.13;;;15.17;100.00
75460;BME280;64039;53.060;9.342;2023-07-30T02:50:04;100417.88;;;15.13;100.00
75460;BME280;64039;53.060;9.342;2023-07-30T02:52:31;100418.78;;;15.09;100.00
75460;BME280;64039;53.060;9.342;2023-07-30T02:54:56;100419.66;;;15.08;100.00
75460;BME280;64039;53.060;9.342;2023-07-30T02:57:22;100414.44;;;15.03;100.00
75460;BME280;64039;53.060;9.342;2023-07-30T02:59:47;100417.94;;;14.94;100.00
75460;BME280;64039;53.060;9.342;2023-07-30T03:02:13;100416.22;;;14.90;100.00
75460;BME280;64039;53.060;9.342;2023-07-30T03:04:38;100412.75;;;14.90;100.00
75460;BME280;64039;53.060;9.342;2023-07-30T03:07:04;100414.47;;;14.94;100.00
75460;BME280;64039;53.060;9.342;2023-07-30T03:09:30;100415.38;;;14.84;100.00
75460;BME280;64039;53.060;9.342;2023-07-30T03:11:55;100418.00;;;14.79;100.00
75460;BME280;64039;53.060;9.342;2023-07-30T03:14:21;100416.25;;;14.73;100.00
75460;BME280;64039;53.060;9.342;2023-07-30T03:16:47;100420.66;;;14.76;100.00
75460;BME280;64039;53.060;9.342;2023-07-30T03:19:13;100415.41;;;14.81;100.00
75460;BME280;64039;53.060;9.342;2023-07-30T03:21:38;100418.91;;;14.75;100.00
75460;BME280;64039;53.060;9.342;2023-07-30T03:24:04;100420.63;;;14.65;100.00
75460;BME280;64039;53.060;9.342;2023-07-30T03:26:30;100425.00;;;14.60;100.00
75460;BME280;64039;53.060;9.342;2023-07-30T03:28:55;100416.28;;;14.64;100.00
75460;BME280;64039;53.060;9.342;2023-07-30T03:31:20;100420.66;;;14.51;100.00
75460;BME280;64039;53.060;9.342;2023-07-30T03:33:46;100412.78;;;14.57;100.00
75460;BME280;64039;53.060;9.342;2023-07-30T03:36:12;100421.53;;;14.59;100.00
75460;BME280;64039;53.060;9.342;2023-07-30T03:38:41;100420.66;;;14.67;100.00
75460;BME280;64039;53.060;9.342;2023-07-30T03:41:07;100419.75;;;14.65;100.00
75460;BME280;64039;53.060;9.342;2023-07-30T03:43:34;100426.75;;;14.64;100.00
75460;BME280;64039;53.060;9.342;2023-07-30T03:45:59;100423.28;;;14.71;100.00
75460;BME280;64039;53.060;9.342;2023-07-30T03:48:25;100430.25;;;14.66;100.00
75460;BME280;64039;53.060;9.342;2023-07-30T03:50:54;100423.28;;;14.71;100.00
75460;BME280;64039;53.060;9.342;2023-07-30T03:53:20;100430.25;;;14.71;100.00
75460;BME280;64039;53.060;9.342;2023-07-30T03:55:46;100430.25;;;14.74;100.00
75460;BME280;64039;53.060;9.342;2023-07-30T03:58:12;100433.75;;;14.68;100.00
75460;BME280;64039;53.060;9.342;2023-07-30T04:00:37;100432.88;;;14.74;100.00
75460;BME280;64039;53.060;9.342;2023-07-30T04:03:03;100438.13;;;14.68;100.00
75460;BME280;64039;53.060;9.342;2023-07-30T04:05:29;100440.72;;;14.58;100.00
75460;BME280;64039;53.060;9.342;2023-07-30T04:07:54;100442.47;;;14.64;100.00
75460;BME280;64039;53.060;9.342;2023-07-30T04:10:20;100446.00;;;14.68;100.00
75460;BME280;64039;53.060;9.342;2023-07-30T04:12:45;100448.59;;;14.68;100.00
75460;BME280;64039;53.060;9.342;2023-07-30T04:15:11;100453.84;;;14.72;100.00
75460;BME280;64039;53.060;9.342;2023-07-30T04:17:37;100457.31;;;14.79;100.00
75460;BME280;64039;53.060;9.342;2023-07-30T04:20:02;100462.56;;;14.71;100.00
75460;BME280;64039;53.060;9.342;2023-07-30T04:22:29;100454.69;;;14.73;100.00
75460;BME280;64039;53.060;9.342;2023-07-30T04:24:55;100455.56;;;14.75;100.00
75460;BME280;64039;53.060;9.342;2023-07-30T04:27:20;100448.56;;;14.80;100.00
75460;BME280;64039;53.060;9.342;2023-07-30T04:29:46;100448.59;;;14.74;100.00
75460;BME280;64039;53.060;9.342;2023-07-30T04:32:12;100450.31;;;14.76;100.00
75460;BME280;64039;53.060;9.342;2023-07-30T04:34:37;100444.22;;;14.76;100.00
75460;BME280;64039;53.060;9.342;2023-07-30T04:37:03;100454.69;;;14.74;100.00
75460;BME280;64039;53.060;9.342;2023-07-30T04:39:30;100453.84;;;14.77;100.00
75460;BME280;64039;53.060;9.342;2023-07-30T04:41:57;100452.06;;;14.82;100.00
75460;BME280;64039;53.060;9.342;2023-07-30T04:44:22;100448.56;;;14.82;100.00
75460;BME280;64039;53.060;9.342;2023-07-30T04:46:48;100451.19;;;14.80;100.00
75460;BME280;64039;53.060;9.342;2023-07-30T04:49:13;100459.06;;;14.83;100.00
75460;BME280;64039;53.060;9.342;2023-07-30T04:51:40;100456.44;;;14.83;100.00
75460;BME280;64039;53.060;9.342;2023-07-30T04:54:07;100449.44;;;14.87;100.00
75460;BME280;64039;53.060;9.342;2023-07-30T04:56:32;100450.31;;;14.83;100.00
75460;BME280;64039;53.060;9.342;2023-07-30T04:58:58;100443.34;;;14.78;100.00
75460;BME280;64039;53.060;9.342;2023-07-30T05:01:24;100449.44;;;14.82;100.00
75460;BME280;64039;53.060;9.342;2023-07-30T05:03:50;100443.31;;;14.86;100.00
75460;BME280;64039;53.060;9.342;2023-07-30T05:06:15;100450.28;;;14.97;100.00
75460;BME280;64039;53.060;9.342;2023-07-30T05:08:41;100446.75;;;15.02;100.00
75460;BME280;64039;53.060;9.342;2023-07-30T05:11:06;100446.78;;;14.94;100.00
75460;BME280;64039;53.060;9.342;2023-07-30T05:13:32;100446.78;;;14.98;100.00
75460;BME280;64039;53.060;9.342;2023-07-30T05:15:57;100452.88;;;15.04;100.00
75460;BME280;64039;53.060;9.342;2023-07-30T05:18:23;100449.38;;;15.10;100.00
75460;BME280;64039;53.060;9.342;2023-07-30T05:20:48;100451.09;;;15.09;100.00
75460;BME280;64039;53.060;9.342;2023-07-30T05:23:14;100443.25;;;15.09;100.00
75460;BME280;64039;53.060;9.342;2023-07-30T05:25:40;100449.38;;;14.99;100.00
75460;BME280;64039;53.060;9.342;2023-07-30T05:28:05;100450.25;;;15.09;100.00
75460;BME280;64039;53.060;9.342;2023-07-30T05:30:31;100450.25;;;15.14;100.00
75460;BME280;64039;53.060;9.342;2023-07-30T05:32:56;100453.75;;;15.05;100.00
75460;BME280;64039;53.060;9.342;2023-07-30T05:35:22;100454.63;;;14.99;100.00
75460;BME280;64039;53.060;9.342;2023-07-30T05:37:47;100460.72;;;15.07;100.00
75460;BME280;64039;53.060;9.342;2023-07-30T05:40:13;100458.13;;;15.04;100.00
75460;BME280;64039;53.060;9.342;2023-07-30T05:42:38;100463.41;;;14.95;100.00
75460;BME280;64039;53.060;9.342;2023-07-30T05:45:04;100460.75;;;15.09;100.00
75460;BME280;64039;53.060;9.342;2023-07-30T05:47:29;100462.47;;;15.08;100.00
75460;BME280;64039;53.060;9.342;2023-07-30T05:49:55;100468.53;;;15.24;100.00
75460;BME280;64039;53.060;9.342;2023-07-30T05:52:20;100461.53;;;15.28;100.00
75460;BME280;64039;53.060;9.342;2023-07-30T05:54:46;100462.44;;;15.19;100.00
75460;BME280;64039;53.060;9.342;2023-07-30T05:57:11;100463.34;;;15.14;100.00
75460;BME280;64039;53.060;9.342;2023-07-30T05:59:37;100463.31;;;15.28;100.00
75460;BME280;64039;53.060;9.342;2023-07-30T06:02:03;100465.00;;;15.29;100.00
75460;BME280;64039;53.060;9.342;2023-07-30T06:04:29;100459.78;;;15.27;100.00
75460;BME280;64039;53.060;9.342;2023-07-30T06:06:55;100452.75;;;15.43;100.00
75460;BME280;64039;53.060;9.342;2023-07-30T06:09:20;100452.66;;;15.55;100.00
75460;BME280;64039;53.060;9.342;2023-07-30T06:11:46;100450.94;;;15.56;100.00
75460;BME280;64039;53.060;9.342;2023-07-30T06:14:11;100451.81;;;15.52;100.00
75460;BME280;64039;53.060;9.342;2023-07-30T06:16:37;100450.88;;;15.62;100.00
75460;BME280;64039;53.060;9.342;2023-07-30T06:19:02;100455.19;;;15.71;100.00
75460;BME280;64039;53.060;9.342;2023-07-30T06:21:28;100462.25;;;15.63;100.00
75460;BME280;64039;53.060;9.342;2023-07-30T06:23:53;100452.53;;;15.82;100.00
75460;BME280;64039;53.060;9.342;2023-07-30T06:26:19;100453.34;;;15.95;100.00
75460;BME280;64039;53.060;9.342;2023-07-30T06:28:44;100455.00;;;16.08;100.00
75460;BME280;64039;53.060;9.342;2023-07-30T06:31:09;100451.47;;;16.11;100.00
75460;BME280;64039;53.060;9.342;2023-07-30T06:33:35;100457.63;;;16.11;100.00
75460;BME280;64039;53.060;9.342;2023-07-30T06:36:03;100455.81;;;16.16;100.00
75460;BME280;64039;53.060;9.342;2023-07-30T06:38:28;100460.03;;;16.34;100.00
75460;BME280;64039;53.060;9.342;2023-07-30T06:40:54;100453.06;;;16.32;100.00
75460;BME280;64039;53.060;9.342;2023-07-30T06:43:21;100456.44;;;16.45;100.00
75460;BME280;64039;53.060;9.342;2023-07-30T06:45:47;100463.47;;;16.43;100.00
75460;BME280;64039;53.060;9.342;2023-07-30T06:48:12;100452.00;;;16.50;100.00
75460;BME280;64039;53.060;9.342;2023-07-30T06:50:38;100458.03;;;16.63;100.00
75460;BME280;64039;53.060;9.342;2023-07-30T06:53:03;100468.53;;;16.64;100.00
75460;BME280;64039;53.060;9.342;2023-07-30T06:55:29;100475.41;;;16.78;100.00
75460;BME280;64039;53.060;9.342;2023-07-30T06:57:54;100467.56;;;16.76;100.00
75460;BME280;64039;53.060;9.342;2023-07-30T07:00:20;100475.63;;;16.56;100.00
75460;BME280;64039;53.060;9.342;2023-07-30T07:02:50;100480.81;;;16.62;100.00
75460;BME280;64039;53.060;9.342;2023-07-30T07:05:16;100482.28;;;16.90;100.00
75460;BME280;64039;53.060;9.342;2023-07-30T07:07:42;100483.06;;;17.03;100.00
75460;BME280;64039;53.060;9.342;2023-07-30T07:10:08;100475.91;;;17.19;100.00
75460;BME280;64039;53.060;9.342;2023-07-30T07:12:35;100471.50;;;17.21;100.00
75460;BME280;64039;53.060;9.342;2023-07-30T07:15:01;100477.63;;;17.21;100.00
75460;BME280;64039;53.060;9.342;2023-07-30T07:17:28;100469.63;;;17.29;100.00
75460;BME280;64039;53.060;9.342;2023-07-30T07:19:53;100466.78;;;17.46;100.00
75460;BME280;64039;53.060;9.342;2023-07-30T07:22:19;100476.22;;;17.63;100.00
75460;BME280;64039;53.060;9.342;2023-07-30T07:24:45;100471.44;;;17.91;100.00
75460;BME280;64039;53.060;9.342;2023-07-30T07:27:14;100472.13;;;18.07;100.00
75460;BME280;64039;53.060;9.342;2023-07-30T07:29:39;100479.06;;;18.11;100.00
75460;BME280;64039;53.060;9.342;2023-07-30T07:32:05;100481.22;;;17.80;100.00
75460;BME280;64039;53.060;9.342;2023-07-30T07:34:31;100479.34;;;17.89;100.00
75460;BME280;64039;53.060;9.342;2023-07-30T07:36:56;100478.13;;;18.14;100.00
75460;BME280;64039;53.060;9.342;2023-07-30T07:39:22;100486.81;;;18.20;100.00
75460;BME280;64039;53.060;9.342;2023-07-30T07:41:47;100484.22;;;18.17;100.00
75460;BME280;64039;53.060;9.342;2023-07-30T07:44:13;100484.66;;;17.86;100.00
75460;BME280;64039;53.060;9.342;2023-07-30T07:46:39;100488.13;;;17.90;100.00
75460;BME280;64039;53.060;9.342;2023-07-30T07:49:04;100492.56;;;17.88;100.00
75460;BME280;64039;53.060;9.342;2023-07-30T07:51:30;100494.16;;;18.00;100.00
75460;BME280;64039;53.060;9.342;2023-07-30T07:53:55;100490.63;;;18.01;100.00
75460;BME280;64039;53.060;9.342;2023-07-30T07:56:21;100496.97;;;17.86;100.00
75460;BME280;64039;53.060;9.342;2023-07-30T07:58:47;100497.72;;;17.94;100.00
75460;BME280;64039;53.060;9.342;2023-07-30T08:01:12;100500.19;;;18.06;100.00
75460;BME280;64039;53.060;9.342;2023-07-30T08:03:38;100494.09;;;18.04;100.00
75460;BME280;64039;53.060;9.342;2023-07-30T08:06:03;100495.06;;;17.99;100.00
75460;BME280;64039;53.060;9.342;2023-07-30T08:08:29;100495.72;;;18.13;100.00
75460;BME280;64039;53.060;9.342;2023-07-30T08:10:54;100501.09;;;18.05;100.00
75460;BME280;64039;53.060;9.342;2023-07-30T08:13:20;100490.56;;;18.07;100.00
75460;BME280;64039;53.060;9.342;2023-07-30T08:15:46;100492.28;;;18.06;100.00
75460;BME280;64039;53.060;9.342;2023-07-30T08:18:11;100500.72;;;18.30;100.00
75460;BME280;64039;53.060;9.342;2023-07-30T08:20:38;100495.53;;;18.24;100.00
75460;BME280;64039;53.060;9.342;2023-07-30T08:23:06;100493.66;;;18.34;100.00
75460;BME280;64039;53.060;9.342;2023-07-30T08:25:32;100493.69;;;18.31;100.00
75460;BME280;64039;53.060;9.342;2023-07-30T08:27:58;100490.84;;;18.45;100.00
75460;BME280;64039;53.060;9.342;2023-07-30T08:30:23;100493.47;;;18.43;100.00
75460;BME280;64039;53.060;9.342;2023-07-30T08:32:50;100482.56;;;18.65;100.00
75460;BME280;64039;53.060;9.342;2023-07-30T08:35:15;100488.00;;;18.56;100.00
75460;BME280;64039;53.060;9.342;2023-07-30T08:37:41;100487.84;;;18.65;100.00
75460;BME280;64039;53.060;9.342;2023-07-30T08:40:07;100490.44;;;18.66;100.00
75460;BME280;64039;53.060;9.342;2023-07-30T08:42:33;100484.94;;;18.80;100.00
75460;BME280;64039;53.060;9.342;2023-07-30T08:44:59;100485.34;;;19.06;100.00
75460;BME280;64039;53.060;9.342;2023-07-30T08:47:26;100487.09;;;19.07;100.00
75460;BME280;64039;53.060;9.342;2023-07-30T08:49:51;100493.25;;;19.07;100.00
75460;BME280;64039;53.060;9.342;2023-07-30T08:52:18;100481.44;;;19.27;100.00
75460;BME280;64039;53.060;9.342;2023-07-30T08:54:46;100489.25;;;19.31;100.00
75460;BME280;64039;53.060;9.342;2023-07-30T08:57:16;100487.72;;;19.21;100.00
75460;BME280;64039;53.060;9.342;2023-07-30T08:59:50;100487.91;;;19.12;100.00
75460;BME280;64039;53.060;9.342;2023-07-30T09:02:24;100494.44;;;18.91;100.00
75460;BME280;64039;53.060;9.342;2023-07-30T09:04:53;100483.78;;;18.97;100.00
75460;BME280;64039;53.060;9.342;2023-07-30T09:07:23;100488.59;;;19.22;100.00
75460;BME280;64039;53.060;9.342;2023-07-30T09:09:51;100496.75;;;19.08;100.00
75460;BME280;64039;53.060;9.342;2023-07-30T09:12:16;100492.16;;;19.19;100.00
75460;BME280;64039;53.060;9.342;2023-07-30T09:14:43;100503.88;;;19.50;100.00
75460;BME280;64039;53.060;9.342;2023-07-30T09:17:17;100501.72;;;19.25;100.00
75460;BME280;64039;53.060;9.342;2023-07-30T09:19:43;100507.84;;;19.25;100.00
75460;BME280;64039;53.060;9.342;2023-07-30T09:22:09;100504.09;;;18.90;100.00
75460;BME280;64039;53.060;9.342;2023-07-30T09:24:34;100506.28;;;19.16;100.00
75460;BME280;64039;53.060;9.342;2023-07-30T09:27:03;100503.69;;;19.13;100.00
75460;BME280;64039;53.060;9.342;2023-07-30T09:29:28;100508.38;;;19.43;100.00
75460;BME280;64039;53.060;9.342;2023-07-30T09:31:54;100509.19;;;19.46;100.00
75460;BME280;64039;53.060;9.342;2023-07-30T09:34:22;100518.81;;;19.51;100.00
75460;BME280;64039;53.060;9.342;2023-07-30T09:36:53;100513.81;;;19.37;100.00
75460;BME280;64039;53.060;9.342;2023-07-30T09:39:22;100512.63;;;19.50;100.00
75460;BME280;64039;53.060;9.342;2023-07-30T09:41:50;100525.16;;;19.40;100.00
75460;BME280;64039;53.060;9.342;2023-07-30T09:44:18;100518.63;;;19.58;100.00
75460;BME280;64039;53.060;9.342;2023-07-30T09:46:45;100528.25;;;20.03;99.93
75460;BME280;64039;53.060;9.342;2023-07-30T09:49:11;100520.31;;;19.61;94.48
75460;BME280;64039;53.060;9.342;2023-07-30T09:51:37;100530.44;;;19.83;94.39
75460;BME280;64039;53.060;9.342;2023-07-30T09:54:07;100523.00;;;20.02;93.71
75460;BME280;64039;53.060;9.342;2023-07-30T09:56:35;100529.88;;;19.67;93.21
75460;BME280;64039;53.060;9.342;2023-07-30T09:59:01;100530.59;;;19.75;92.68
75460;BME280;64039;53.060;9.342;2023-07-30T10:01:28;100529.19;;;19.58;96.01
75460;BME280;64039;53.060;9.342;2023-07-30T10:03:57;100532.41;;;19.73;94.97
75460;BME280;64039;53.060;9.342;2023-07-30T10:06:28;100540.69;;;19.98;96.02
75460;BME280;64039;53.060;9.342;2023-07-30T10:08:58;100538.69;;;19.67;97.14
75460;BME280;64039;53.060;9.342;2023-07-30T10:11:25;100541.84;;;19.86;94.37
75460;BME280;64039;53.060;9.342;2023-07-30T10:13:51;100541.66;;;19.52;94.85
75460;BME280;64039;53.060;9.342;2023-07-30T10:16:24;100551.66;;;19.78;98.82
75460;BME280;64039;53.060;9.342;2023-07-30T10:18:55;100559.50;;;19.39;98.73
75460;BME280;64039;53.060;9.342;2023-07-30T10:21:23;100559.13;;;19.57;98.03
75460;BME280;64039;53.060;9.342;2023-07-30T10:24:03;100553.75;;;19.63;96.14
75460;BME280;64039;53.060;9.342;2023-07-30T10:26:35;100549.41;;;19.59;99.19
75460;BME280;64039;53.060;9.342;2023-07-30T10:29:19;100555.22;;;19.77;97.93
75460;BME280;64039;53.060;9.342;2023-07-30T10:31:55;100544.59;;;19.78;96.43
75460;BME280;64039;53.060;9.342;2023-07-30T10:34:22;100552.00;;;19.61;95.97
75460;BME280;64039;53.060;9.342;2023-07-30T10:36:50;100559.78;;;19.69;96.60
75460;BME280;64039;53.060;9.342;2023-07-30T10:39:19;100559.34;;;19.92;95.69
75460;BME280;64039;53.060;9.342;2023-07-30T10:41:50;100546.09;;;19.93;97.38
75460;BME280;64039;53.060;9.342;2023-07-30T10:44:27;100551.03;;;20.09;95.25
75460;BME280;64039;53.060;9.342;2023-07-30T10:46:55;100546.44;;;20.17;93.40
75460;BME280;64039;53.060;9.342;2023-07-30T10:49:22;100541.91;;;20.22;94.65
75460;BME280;64039;53.060;9.342;2023-07-30T10:51:48;100547.78;;;20.71;94.60
75460;BME280;64039;53.060;9.342;2023-07-30T10:54:14;100543.53;;;21.00;93.68
75460;BME280;64039;53.060;9.342;2023-07-30T10:56:41;100541.19;;;20.89;92.33
75460;BME280;64039;53.060;9.342;2023-07-30T10:59:08;100530.06;;;20.75;94.76
75460;BME280;64039;53.060;9.342;2023-07-30T11:01:44;100542.22;;;21.17;93.90
75460;BME280;64039;53.060;9.342;2023-07-30T11:04:20;100542.28;;;21.15;93.19
75460;BME280;64039;53.060;9.342;2023-07-30T11:06:50;100534.00;;;20.95;90.29
75460;BME280;64039;53.060;9.342;2023-07-30T11:09:26;100536.94;;;20.84;89.71
75460;BME280;64039;53.060;9.342;2023-07-30T11:11:54;100534.81;;;20.97;86.19
75460;BME280;64039;53.060;9.342;2023-07-30T11:14:24;100534.84;;;20.95;90.08
75460;BME280;64039;53.060;9.342;2023-07-30T11:16:57;100533.50;;;21.13;90.06
75460;BME280;64039;53.060;9.342;2023-07-30T11:19:26;100528.34;;;21.09;88.32
75460;BME280;64039;53.060;9.342;2023-07-30T11:21:55;100532.53;;;21.16;90.09
75460;BME280;64039;53.060;9.342;2023-07-30T11:24:21;100540.44;;;21.17;89.87
75460;BME280;64039;53.060;9.342;2023-07-30T11:26:59;100521.97;;;20.83;87.29
75460;BME280;64039;53.060;9.342;2023-07-30T11:29:25;100521.06;;;20.82;86.51
75460;BME280;64039;53.060;9.342;2023-07-30T11:31:50;100501.75;;;21.13;84.99
75460;BME280;64039;53.060;9.342;2023-07-30T11:34:16;100511.56;;;21.10;82.29
75460;BME280;64039;53.060;9.342;2023-07-30T11:36:43;100514.03;;;21.46;84.39
75460;BME280;64039;53.060;9.342;2023-07-30T11:39:10;100519.06;;;21.55;79.15
75460;BME280;64039;53.060;9.342;2023-07-30T11:41:36;100512.97;;;21.22;80.43
75460;BME280;64039;53.060;9.342;2023-07-30T11:44:02;100517.66;;;21.75;84.41
75460;BME280;64039;53.060;9.342;2023-07-30T11:46:31;100512.50;;;21.39;74.93
75460;BME280;64039;53.060;9.342;2023-07-30T11:49:13;100524.34;;;21.57;79.43
75460;BME280;64039;53.060;9.342;2023-07-30T11:51:39;100509.13;;;21.65;77.60
75460;BME280;64039;53.060;9.342;2023-07-30T11:54:04;100511.31;;;21.80;80.07
75460;BME280;64039;53.060;9.342;2023-07-30T11:56:31;100512.97;;;21.22;78.54
75460;BME280;64039;53.060;9.342;2023-07-30T11:58:59;100518.53;;;21.12;78.45
75460;BME280;64039;53.060;9.342;2023-07-30T12:01:26;100517.22;;;20.96;80.71
75460;BME280;64039;53.060;9.342;2023-07-30T12:03:59;100519.13;;;21.22;80.92
75460;BME280;64039;53.060;9.342;2023-07-30T12:06:39;100517.31;;;21.24;78.47
75460;BME280;64039;53.060;9.342;2023-07-30T12:09:19;100521.53;;;20.98;75.70
75460;BME280;64039;53.060;9.342;2023-07-30T12:11:56;100530.88;;;20.79;79.83
75460;BME280;64039;53.060;9.342;2023-07-30T12:14:24;100523.34;;;20.62;80.98
75460;BME280;64039;53.060;9.342;2023-07-30T12:16:59;100525.47;;;20.47;82.18
75460;BME280;64039;53.060;9.342;2023-07-30T12:19:27;100521.19;;;20.41;82.53
75460;BME280;64039;53.060;9.342;2023-07-30T12:21:52;100520.41;;;20.38;81.35
75460;BME280;64039;53.060;9.342;2023-07-30T12:24:18;100522.75;;;20.14;80.02
75460;BME280;64039;53.060;9.342;2023-07-30T12:26:44;100521.03;;;20.48;80.23
75460;BME280;64039;53.060;9.342;2023-07-30T12:29:09;100521.25;;;20.38;79.89
75460;BME280;64039;53.060;9.342;2023-07-30T12:31:35;100520.41;;;20.38;82.34
75460;BME280;64039;53.060;9.342;2023-07-30T12:34:01;100534.47;;;20.38;83.54
75460;BME280;64039;53.060;9.342;2023-07-30T12:36:28;100529.69;;;20.54;85.88
75460;BME280;64039;53.060;9.342;2023-07-30T12:38:53;100526.91;;;20.23;84.52
75460;BME280;64039;53.060;9.342;2023-07-30T12:41:22;100528.28;;;20.39;83.61